Kota Kinabalu, Malaysia
Current Conditions -  °F | °C
As of 2:30 AM on Wednesday 22 Oct 2014 (Local Time) from WBKK Reporting Station
Broken Clouds Broken Clouds  
Wind Chill: 79°   Ceiling: 27000
Heat Index: 82°   Visibility: 6mi
Dew Point: 75°   Wind: 3mph
Humidity: 89%   Direction: 110°ESE
Pressure: 29.83"   Gusts: NA
Location:  5.97°N, 116.07°E
Report Text: WBKK 211830Z 11003KT 9999 FEW014 SCT140 BKN270 26/24 Q1010 NOSIG
Loading
Personal Weather Stations






























Interactive Weather Map
Tropical Storm Tracking
New forecast layout! Learn more

10-Day Weather Forecast

Advertisements
Track Severe Weather on mobile